Time;durP1;ratioP1;P1;durP2;ratioP2;P2;SDS_P1;SDS_P2;PMS_P1;PMS_P2;Temp;Humidity;BMP_temperature;BMP_pressure;BME280_temperature;BME280_humidity;BME280_pressure;Samples;Min_cycle;Max_cycle;Signal;HPM_P1;HPM_P2
2021/04/13 00:02:41;;;;;;;22.62;17.23;;;;;;;10.60;66.44;100953.16;1714984;81;21603;-43
2021/04/13 00:05:26;;;;;;;21.33;15.75;;;;;;;10.60;66.42;100957.62;1721067;81;21201;-45
2021/04/13 00:07:54;;;;;;;20.23;16.57;;;;;;;10.59;66.40;100950.58;1733846;81;21185;-43
2021/04/13 00:10:32;;;;;;;25.40;16.42;;;;;;;10.58;66.29;100947.06;1708730;83;21179;-43
2021/04/13 00:13:25;;;;;;;20.08;16.80;;;;;;;10.63;66.27;100951.28;1787427;78;22244;-46
2021/04/13 00:15:56;;;;;;;23.67;17.48;;;;;;;10.58;66.21;100955.50;1757072;79;21329;-45
2021/04/13 00:18:29;;;;;;;21.97;18.03;;;;;;;10.57;66.19;100955.13;1756231;79;21232;-42
2021/04/13 00:21:11;;;;;;;18.20;15.53;;;;;;;10.55;66.25;100951.67;1757476;79;21148;-46
2021/04/13 00:23:39;;;;;;;24.90;17.42;;;;;;;10.54;66.38;100958.81;1730408;80;21553;-46
2021/04/13 00:26:09;;;;;;;21.33;16.97;;;;;;;10.55;66.50;100959.67;1757562;79;21141;-44
2021/04/13 00:28:43;;;;;;;21.93;15.83;;;;;;;10.55;66.67;100961.00;1758585;79;21164;-42
2021/04/13 00:31:45;;;;;;;23.70;17.00;;;;;;;10.55;66.63;100956.53;1754971;79;21153;-44
2021/04/13 00:34:24;;;;;;;22.42;15.70;;;;;;;10.57;66.54;100959.13;1760190;80;21476;-43
2021/04/13 00:36:55;;;;;;;20.27;15.83;;;;;;;10.57;66.60;100953.80;1761926;79;21170;-44
2021/04/13 00:39:27;;;;;;;20.35;16.52;;;;;;;10.57;66.67;100956.46;1756393;80;21153;-43
2021/04/13 00:41:59;;;;;;;20.37;17.07;;;;;;;10.55;66.79;100959.19;1752672;80;21150;-46
2021/04/13 00:44:32;;;;;;;19.15;15.35;;;;;;;10.54;67.24;100950.81;1762477;80;21153;-44
2021/04/13 00:47:04;;;;;;;19.20;16.30;;;;;;;10.55;67.46;100956.53;1765127;80;21157;-45
2021/04/13 00:49:35;;;;;;;18.05;15.58;;;;;;;10.54;67.58;100956.15;1765452;79;21149;-43
2021/04/13 00:52:16;;;;;;;18.65;15.53;;;;;;;10.54;67.79;100958.81;1765306;80;21133;-44
2021/04/13 00:54:53;;;;;;;18.23;15.93;;;;;;;10.53;67.91;100960.21;1727891;80;21860;-44
2021/04/13 00:57:26;;;;;;;20.92;16.05;;;;;;;10.52;67.79;100956.69;1743423;80;21145;-42
2021/04/13 00:59:56;;;;;;;19.23;16.42;;;;;;;10.52;67.63;100956.69;1771324;80;21150;-42
2021/04/13 01:02:29;;;;;;;21.35;16.82;;;;;;;10.52;67.61;100957.17;1720880;81;21152;-46
2021/04/13 01:05:16;;;;;;;22.10;16.82;;;;;;;10.52;67.60;100954.50;1692708;83;21175;-42
2021/04/13 01:07:49;;;;;;;19.67;16.82;;;;;;;10.52;67.57;100950.50;1696801;83;21193;-44
2021/04/13 01:10:33;;;;;;;20.50;15.35;;;;;;;10.51;67.57;100948.78;1726996;81;21532;-40
2021/04/13 01:13:12;;;;;;;17.80;15.32;;;;;;;10.51;67.61;100943.45;1710198;82;21189;-43
2021/04/13 01:15:42;;;;;;;18.87;16.05;;;;;;;10.51;67.71;100947.45;1722183;81;21165;-44
2021/04/13 01:18:20;;;;;;;20.20;15.72;;;;;;;10.49;67.68;100944.85;1727928;81;21553;-43
2021/04/13 01:21:30;;;;;;;19.98;17.17;;;;;;;10.50;67.60;100941.71;1727144;81;21180;-44
2021/04/13 01:23:58;;;;;;;19.87;16.05;;;;;;;10.50;67.63;100943.04;1727256;81;21168;-41
2021/04/13 01:26:23;;;;;;;19.17;16.67;;;;;;;10.50;67.58;100940.38;1702711;82;21610;-42
2021/04/13 01:28:53;;;;;;;18.02;15.72;;;;;;;10.50;67.48;100937.70;1723472;81;21153;-40
2021/04/13 01:34:28;;;;;;;24.27;16.35;;;;;;;10.50;67.47;100931.90;1699629;83;21625;-41
2021/04/13 01:37:16;;;;;;;19.07;16.27;;;;;;;10.50;67.41;100933.23;1699485;82;21228;-42
2021/04/13 01:39:47;;;;;;;19.80;16.60;;;;;;;10.50;67.36;100931.90;1697452;83;21162;-42
2021/04/13 01:42:11;;;;;;;19.00;16.42;;;;;;;10.50;67.22;100931.90;1688724;83;21177;-44
2021/04/13 01:44:44;;;;;;;23.75;16.80;;;;;;;10.50;67.20;100931.90;1665105;83;21172;-43
2021/04/13 01:47:14;;;;;;;21.87;17.48;;;;;;;10.50;67.36;100931.05;1699098;83;21138;-44
2021/04/13 01:49:46;;;;;;;;;;;;;;;10.50;67.60;100932.37;1733506;81;21263;-42
2021/04/13 01:52:32;;;;;;;;;;;;;;;10.48;67.75;100932.92;1700352;83;20179;-44
2021/04/13 01:55:23;;;;;;;20.35;15.23;;;;;;;10.48;67.81;100931.59;1706783;83;20152;-44
2021/04/13 01:58:17;;;;;;;;;;;;;;;10.45;68.02;100932.60;1701917;83;21625;-43
2021/04/13 02:01:00;;;;;;;18.67;14.63;;;;;;;10.43;68.16;100930.48;1698338;83;20158;-42
2021/04/13 02:03:44;;;;;;;19.45;15.78;;;;;;;10.42;68.39;100932.77;1648427;85;21202;-43
2021/04/13 02:06:20;;;;;;;18.12;16.23;;;;;;;10.40;68.49;100924.84;1650449;85;21959;-44
2021/04/13 02:09:59;;;;;;;16.82;15.00;;;;;;;10.42;68.60;100918.11;1798326;78;23084;-45
2021/04/13 02:12:00;;;;;;;21.80;17.05;;;;;;;10.38;68.47;100912.52;1727423;80;21160;-43
2021/04/13 02:14:29;;;;;;;21.42;17.32;;;;;;;10.37;68.42;100915.67;1779912;79;21132;-44
2021/04/13 02:17:14;;;;;;;23.27;16.57;;;;;;;10.37;68.38;100910.81;1741221;80;21121;-43
2021/04/13 02:19:48;;;;;;;23.92;16.97;;;;;;;10.36;68.36;100912.63;1776062;79;21146;-43
2021/04/13 02:22:17;;;;;;;19.85;16.07;;;;;;;10.36;68.30;100915.77;1772053;80;21149;-43
2021/04/13 02:24:45;;;;;;;19.62;16.27;;;;;;;10.34;68.16;100907.83;1767267;79;21125;-44
2021/04/13 02:27:17;;;;;;;20.10;16.57;;;;;;;10.28;68.12;100912.59;1741906;80;21205;-43
2021/04/13 02:29:49;;;;;;;19.32;16.75;;;;;;;10.22;68.19;100914.22;1792637;80;21196;-43
2021/04/13 02:32:27;;;;;;;19.25;15.58;;;;;;;10.17;68.32;100916.63;1787642;79;21152;-41
2021/04/13 02:35:05;;;;;;;23.65;16.37;;;;;;;10.16;68.66;100916.25;1757596;80;21164;-47
2021/04/13 02:37:51;;;;;;;18.80;14.85;;;;;;;10.17;69.06;100909.11;1776842;80;21184;-42
2021/04/13 02:40:30;;;;;;;23.15;15.63;;;;;;;10.17;69.33;100909.97;1764732;78;21153;-43
2021/04/13 02:43:02;;;;;;;19.48;16.48;;;;;;;10.19;69.48;100909.91;1785220;79;21354;-41
2021/04/13 02:45:53;;;;;;;18.70;15.78;;;;;;;10.21;69.55;100909.36;1785251;78;21145;-41
2021/04/13 02:49:04;;;;;;;22.22;16.70;;;;;;;10.23;69.51;100906.60;1772499;79;21152;-45
2021/04/13 02:52:19;;;;;;;22.45;15.60;;;;;;;10.26;69.45;100909.14;1624201;86;21354;-45
2021/04/13 02:54:56;;;;;;;18.73;16.35;;;;;;;10.30;69.15;100898.25;1804575;77;23000;-45
2021/04/13 02:57:26;;;;;;;;;;;;;;;10.26;68.94;100908.66;1779598;79;21123;-46
2021/04/13 03:00:01;;;;;;;19.20;15.68;;;;;;;10.25;68.85;100902.92;1777851;78;20177;-44
2021/04/13 03:02:48;;;;;;;25.57;17.67;;;;;;;10.24;68.76;100903.02;1770356;78;21145;-44
2021/04/13 03:05:25;;;;;;;22.42;17.27;;;;;;;10.23;68.73;100908.83;1766523;78;21549;-44
2021/04/13 03:07:56;;;;;;;24.63;17.30;;;;;;;10.23;68.67;100907.50;1779752;78;21495;-43
2021/04/13 03:10:30;;;;;;;23.02;17.70;;;;;;;10.23;68.61;100906.60;1752436;79;21137;-42
2021/04/13 03:13:02;;;;;;;22.13;17.12;;;;;;;10.23;68.66;100909.27;1712824;81;21161;-42
2021/04/13 03:15:30;;;;;;;;;;;;;;;10.24;68.59;100913.68;1694332;83;21153;-42
2021/04/13 03:18:00;;;;;;;22.45;17.73;;;;;;;10.25;68.54;100911.39;1726369;81;20155;-42
2021/04/13 03:20:33;;;;;;;20.35;17.10;;;;;;;10.23;68.48;100908.83;1699987;83;21158;-45
2021/04/13 03:23:01;;;;;;;23.10;18.02;;;;;;;10.24;68.45;100909.69;1706210;82;21545;-44
2021/04/13 03:25:41;;;;;;;23.90;18.77;;;;;;;10.24;68.51;100907.02;1682544;82;21587;-45
2021/04/13 03:28:11;;;;;;;22.93;17.23;;;;;;;10.24;68.54;100904.35;1705631;82;21579;-45
2021/04/13 03:30:40;;;;;;;23.35;18.80;;;;;;;10.24;68.54;100905.20;1679587;83;21470;-44
2021/04/13 03:33:18;;;;;;;20.85;17.40;;;;;;;10.23;68.46;100906.16;1710151;82;21142;-46
2021/04/13 03:35:45;;;;;;;21.97;19.20;;;;;;;10.23;68.40;100903.50;1707022;82;21118;-45
2021/04/13 03:38:18;;;;;;;22.07;17.90;;;;;;;10.23;68.36;100909.27;1709254;82;21450;-46
2021/04/13 03:40:49;;;;;;;24.63;18.77;;;;;;;10.23;68.43;100916.83;1679591;82;21600;-44
2021/04/13 03:43:23;;;;;;;25.48;19.20;;;;;;;10.25;68.33;100915.39;1708911;82;21534;-45
2021/04/13 03:45:53;;;;;;;24.43;18.70;;;;;;;10.25;68.26;100914.92;1679322;82;21169;-49
2021/04/13 03:48:25;;;;;;;25.25;19.05;;;;;;;10.26;68.23;100915.80;1704416;82;21300;-43
2021/04/13 03:51:17;;;;;;;25.20;18.48;;;;;;;10.26;68.18;100919.33;1706772;82;21178;-43
2021/04/13 03:53:45;;;;;;;;;;;;;;;10.26;68.22;100922.47;1625600;86;21313;-43
2021/04/13 03:56:17;;;;;;;22.98;18.87;;;;;;;10.24;68.08;100923.86;1634609;86;20283;-42
2021/04/13 03:58:49;;;;;;;22.58;19.20;;;;;;;10.24;68.03;100927.86;1636624;86;21209;-44
2021/04/13 04:01:20;;;;;;;25.70;21.30;;;;;;;10.23;68.03;100916.83;1637088;86;21578;-42
2021/04/13 04:03:55;;;;;;;25.62;20.00;;;;;;;10.24;68.12;100921.67;1638561;86;21185;-45
2021/04/13 04:06:59;;;;;;;23.05;19.25;;;;;;;10.28;68.17;100921.92;1809134;77;22744;-44
2021/04/13 04:09:33;;;;;;;21.93;18.15;;;;;;;10.25;68.15;100922.05;1784286;78;21160;-44
2021/04/13 04:12:20;;;;;;;25.75;19.87;;;;;;;10.25;68.17;100919.39;1778774;78;21169;-44
2021/04/13 04:15:07;;;;;;;24.63;19.90;;;;;;;10.26;68.16;100923.33;1756529;79;21182;-44
2021/04/13 04:17:39;;;;;;;22.58;17.80;;;;;;;10.28;68.01;100920.59;1751582;80;21125;-43
2021/04/13 04:20:10;;;;;;;28.55;19.35;;;;;;;10.29;67.98;100923.67;1726562;80;21402;-43
2021/04/13 04:22:51;;;;;;;24.25;18.45;;;;;;;10.28;68.00;100923.27;1748677;80;21145;-43
2021/04/13 04:25:39;;;;;;;24.35;19.37;;;;;;;10.27;68.03;100924.18;1749954;80;21389;-43
2021/04/13 04:28:18;;;;;;;27.60;18.07;;;;;;;10.27;68.09;100924.18;1756724;80;21137;-45
2021/04/13 04:30:46;;;;;;;28.98;20.20;;;;;;;10.28;68.04;100936.59;1750476;80;21090;-39
2021/04/13 04:33:38;;;;;;;22.73;18.85;;;;;;;10.27;68.03;100929.52;1754781;80;21576;-44
2021/04/13 04:36:31;;;;;;;24.82;19.57;;;;;;;10.28;68.07;100933.92;1750961;80;21125;-43
2021/04/13 04:39:26;;;;;;;21.45;19.02;;;;;;;10.27;68.14;100927.70;1698468;83;21166;-44
2021/04/13 04:41:56;;;;;;;26.35;19.17;;;;;;;10.27;68.08;100925.03;1701221;83;21928;-44
2021/04/13 04:44:27;;;;;;;26.30;20.95;;;;;;;10.29;68.04;100922.34;1694015;83;21213;-42
2021/04/13 04:46:59;;;;;;;31.00;21.65;;;;;;;10.27;68.07;100922.38;1694485;83;21172;-43
2021/04/13 04:49:40;;;;;;;23.83;19.82;;;;;;;10.29;68.09;100925.00;1697994;83;21185;-46
2021/04/13 04:52:07;;;;;;;26.95;21.23;;;;;;;10.29;68.03;100918.34;1678935;83;21173;-41
2021/04/13 04:54:35;;;;;;;24.95;21.77;;;;;;;10.29;67.94;100924.53;1704258;83;21633;-46
2021/04/13 04:57:04;;;;;;;28.15;20.37;;;;;;;10.29;68.02;100922.34;1697807;83;21216;-44
2021/04/13 04:59:38;;;;;;;25.48;22.52;;;;;;;10.33;68.09;100917.23;1800696;78;23086;-43
2021/04/13 05:02:07;;;;;;;28.32;21.97;;;;;;;10.30;68.02;100914.72;1771212;79;21135;-45
2021/04/13 05:04:34;;;;;;;26.23;21.40;;;;;;;10.32;67.94;100912.38;1723875;81;21168;-44
2021/04/13 05:07:03;;;;;;;30.08;21.57;;;;;;;10.32;67.94;100916.84;1745986;80;21145;-44
2021/04/13 05:09:31;;;;;;;30.97;22.37;;;;;;;10.32;67.91;100914.19;1722053;81;21169;-44
2021/04/13 05:11:59;;;;;;;29.82;20.32;;;;;;;10.34;67.89;100914.97;1741281;81;21129;-43
2021/04/13 05:14:26;;;;;;;27.22;21.82;;;;;;;10.34;67.93;100918.49;1706774;81;21601;-44
2021/04/13 05:16:54;;;;;;;29.10;22.62;;;;;;;10.35;68.17;100920.68;1723033;81;21177;-44
2021/04/13 05:19:22;;;;;;;35.15;25.57;;;;;;;10.35;68.20;100918.87;1729543;82;21166;-44
2021/04/13 05:21:50;;;;;;;38.00;27.35;;;;;;;10.38;68.21;100919.19;1722527;81;21141;-44
2021/04/13 05:24:18;;;;;;;37.70;27.52;;;;;;;10.37;68.38;100918.33;1742740;80;21138;-42
2021/04/13 05:26:46;;;;;;;34.33;26.02;;;;;;;10.37;68.49;100925.00;1724883;81;21123;-42
2021/04/13 05:29:14;;;;;;;36.20;25.02;;;;;;;10.38;68.46;100917.86;1715880;81;21142;-42
2021/04/13 05:31:42;;;;;;;29.52;24.72;;;;;;;10.38;68.52;100918.74;1723940;81;21554;-43
2021/04/13 05:34:11;;;;;;;32.00;23.18;;;;;;;10.39;68.51;100918.27;1716026;82;21561;-44
2021/04/13 05:36:40;;;;;;;30.60;24.05;;;;;;;10.40;68.53;100915.50;1711812;82;21569;-43
2021/04/13 05:39:10;;;;;;;29.92;22.45;;;;;;;10.43;68.63;100914.96;1723318;82;21161;-43
2021/04/13 05:41:39;;;;;;;26.77;22.37;;;;;;;10.45;68.64;100909.94;1744425;80;21646;-45
2021/04/13 05:44:07;;;;;;;39.73;25.20;;;;;;;10.46;68.65;100906.80;1743141;80;21190;-43
2021/04/13 05:46:35;;;;;;;27.82;22.32;;;;;;;10.45;68.71;100903.75;1744736;80;21180;-44
2021/04/13 05:49:03;;;;;;;29.00;22.62;;;;;;;10.45;68.78;100907.75;1719865;81;21663;-44
2021/04/13 05:51:32;;;;;;;29.80;23.30;;;;;;;10.44;68.98;100908.23;1720879;81;21695;-44
2021/04/13 05:53:59;;;;;;;26.55;21.70;;;;;;;10.45;68.99;100911.75;1725217;82;21169;-48
2021/04/13 05:56:31;;;;;;;27.48;22.70;;;;;;;10.45;68.99;100915.27;1718642;81;21173;-44
2021/04/13 05:58:58;;;;;;;27.02;22.58;;;;;;;10.45;69.05;100912.61;1717140;82;21188;-49
2021/04/13 06:01:27;;;;;;;30.62;23.22;;;;;;;10.48;69.13;100912.48;1772713;79;21129;-42
2021/04/13 06:03:55;;;;;;;30.45;22.95;;;;;;;10.53;68.92;100917.55;1776213;79;21114;-42
2021/04/13 06:06:23;;;;;;;30.62;23.35;;;;;;;10.55;68.65;100911.67;1772129;79;21162;-42
2021/04/13 06:08:54;;;;;;;30.27;23.12;;;;;;;10.57;68.58;100911.13;1774912;79;21138;-42
2021/04/13 06:11:28;;;;;;;29.32;23.60;;;;;;;10.60;68.30;100916.30;1774626;79;21593;-42
2021/04/13 06:13:57;;;;;;;26.45;21.97;;;;;;;10.61;68.22;100914.89;1775315;79;21146;-41
2021/04/13 06:16:33;;;;;;;28.02;23.45;;;;;;;10.64;68.28;100917.02;1714385;82;21225;-43
2021/04/13 06:18:54;;;;;;;32.55;24.43;;;;;;;10.65;68.29;100912.06;1769875;79;21094;-43
2021/04/13 06:21:22;;;;;;;26.97;21.87;;;;;;;10.65;68.43;100907.58;1773364;79;21133;-47
2021/04/13 06:23:50;;;;;;;27.22;22.37;;;;;;;10.69;68.50;100909.64;1771812;79;21150;-43
2021/04/13 06:26:17;;;;;;;25.82;21.20;;;;;;;10.71;68.54;100906.39;1772503;79;21150;-42
2021/04/13 06:28:47;;;;;;;27.17;22.65;;;;;;;10.74;68.52;100905.78;1773690;79;21155;-43
2021/04/13 06:31:15;;;;;;;25.77;21.37;;;;;;;10.80;68.55;100911.25;1772647;79;21173;-42
2021/04/13 06:33:42;;;;;;;28.90;22.45;;;;;;;10.87;68.56;100905.14;1774023;80;21142;-44
2021/04/13 06:36:12;;;;;;;25.08;20.88;;;;;;;10.89;68.53;100905.45;1772175;79;21134;-45
2021/04/13 06:38:40;;;;;;;25.75;21.30;;;;;;;10.92;68.54;100906.61;1767061;79;21603;-44
2021/04/13 06:42:03;;;;;;;29.05;20.68;;;;;;;10.95;68.56;100910.44;1767171;80;21165;-43
2021/04/13 06:44:43;;;;;;;27.58;21.00;;;;;;;10.99;68.57;100912.49;1774695;79;21300;-45
2021/04/13 06:47:32;;;;;;;28.12;21.23;;;;;;;11.02;68.53;100911.84;1769868;79;21137;-43
2021/04/13 06:50:38;;;;;;;28.75;21.57;;;;;;;11.06;68.40;100911.19;1772459;79;21145;-46
2021/04/13 06:53:30;;;;;;;24.72;21.15;;;;;;;11.10;68.36;100906.57;1781714;79;21810;-45
2021/04/13 06:56:11;;;;;;;26.77;21.05;;;;;;;11.12;68.47;100902.88;1772423;79;21114;-41
2021/04/13 06:59:01;;;;;;;29.75;22.90;;;;;;;11.14;68.49;100900.99;1766455;80;21118;-44
2021/04/13 07:01:59;;;;;;;29.30;21.82;;;;;;;11.17;68.61;100897.30;1774178;79;21614;-41
2021/04/13 07:04:45;;;;;;;28.75;23.22;;;;;;;11.18;68.40;100902.53;1771864;79;21530;-40
2021/04/13 07:07:30;;;;;;;27.58;21.68;;;;;;;11.20;68.36;100904.65;1774700;79;21128;-41
2021/04/13 07:10:23;;;;;;;30.68;25.25;;;;;;;11.21;68.30;100906.39;1775575;79;21449;-40
2021/04/13 07:13:19;;;;;;;29.23;21.77;;;;;;;11.24;68.44;100911.55;1770424;79;21130;-45
2021/04/13 07:16:15;;;;;;;28.42;21.90;;;;;;;11.26;68.43;100911.00;1726375;81;21167;-43
2021/04/13 07:18:47;;;;;;;26.23;21.85;;;;;;;11.28;68.37;100913.57;1728112;81;21160;-43
2021/04/13 07:21:41;;;;;;;25.62;20.40;;;;;;;11.33;68.47;100913.33;1720903;81;21673;-41
2021/04/13 07:24:49;;;;;;;26.82;21.65;;;;;;;11.37;68.42;100910.89;1807210;77;23726;-41
2021/04/13 07:27:22;;;;;;;25.80;20.37;;;;;;;11.36;68.25;100911.81;1719713;81;21127;-45
2021/04/13 07:29:59;;;;;;;35.75;27.02;;;;;;;11.39;67.96;100911.64;1721329;81;21157;-42
2021/04/13 07:32:27;;;;;;;27.32;22.07;;;;;;;11.40;68.02;100916.05;1723676;81;21771;-42
2021/04/13 07:34:58;;;;;;;26.12;21.77;;;;;;;11.40;68.06;100905.38;1720805;82;21699;-42
2021/04/13 07:37:53;;;;;;;31.07;27.33;;;;;;;11.46;68.16;100909.02;1825019;75;28499;-42
2021/04/13 07:40:28;;;;;;;29.32;22.82;;;;;;;11.46;68.28;100917.92;1825342;76;21110;-44
2021/04/13 07:43:03;;;;;;;29.57;22.75;;;;;;;11.54;68.19;100916.61;1823679;76;21358;-44
2021/04/13 07:45:51;;;;;;;29.57;23.20;;;;;;;11.56;68.01;100920.92;1825259;76;21322;-42
2021/04/13 07:48:43;;;;;;;26.68;21.95;;;;;;;11.57;68.14;100919.98;1818909;76;21129;-46
2021/04/13 07:51:38;;;;;;;32.28;21.90;;;;;;;11.60;68.15;100918.48;1829479;76;21121;-46
2021/04/13 07:54:45;;;;;;;28.27;21.42;;;;;;;11.62;68.00;100919.26;1764617;79;21517;-42
2021/04/13 07:57:51;;;;;;;29.18;23.20;;;;;;;11.68;68.01;100919.38;1799688;78;23545;-46
2021/04/13 08:00:30;;;;;;;27.13;22.93;;;;;;;11.68;67.75;100919.38;1738059;81;21126;-43
2021/04/13 08:03:31;;;;;;;29.37;23.18;;;;;;;11.70;67.59;100917.49;1745034;80;21338;-44
2021/04/13 08:06:03;;;;;;;28.45;22.50;;;;;;;11.72;67.61;100919.61;1745485;81;21161;-42
2021/04/13 08:08:35;;;;;;;31.60;23.87;;;;;;;11.75;67.55;100919.91;1740645;80;21560;-45
2021/04/13 08:11:13;;;;;;;29.57;22.93;;;;;;;11.75;67.65;100911.89;1744004;80;21662;-41
2021/04/13 08:13:52;;;;;;;28.12;22.93;;;;;;;11.76;67.70;100914.46;1740930;81;21764;-44
2021/04/13 08:16:38;;;;;;;34.75;22.65;;;;;;;11.78;67.79;100916.58;1745886;80;21581;-45
2021/04/13 08:19:25;;;;;;;30.45;24.60;;;;;;;11.79;67.81;100916.09;1723545;81;21535;-44
2021/04/13 08:22:17;;;;;;;27.58;21.55;;;;;;;11.83;67.75;100914.50;1745972;80;21209;-43
2021/04/13 08:24:47;;;;;;;;;;;;;;;11.85;67.88;100907.75;1748149;80;21181;-44
2021/04/13 08:27:35;;;;;;;32.70;23.25;;;;;;;11.87;67.81;100909.42;1749889;80;20598;-44
2021/04/13 08:30:30;;;;;;;27.05;20.77;;;;;;;11.91;67.69;100904.75;1756992;79;23020;-45
2021/04/13 08:33:37;;;;;;;31.10;22.77;;;;;;;11.88;67.69;100904.45;1732464;80;21146;-44
2021/04/13 08:36:23;;;;;;;30.00;21.90;;;;;;;11.90;67.71;100909.72;1732437;80;21124;-45
2021/04/13 08:38:59;;;;;;;25.57;20.72;;;;;;;11.93;67.67;100897.98;1664966;84;21650;-45
2021/04/13 08:41:44;;;;;;;27.27;20.92;;;;;;;11.97;67.59;100903.52;1659721;84;21172;-44
2021/04/13 08:44:34;;;;;;;26.80;22.02;;;;;;;12.01;67.79;100905.08;1667352;84;21639;-42
2021/04/13 08:47:10;;;;;;;25.02;20.70;;;;;;;12.04;67.75;100903.08;1661676;84;21168;-42
2021/04/13 08:49:57;;;;;;;29.48;21.33;;;;;;;12.07;67.63;100904.27;1661445;84;21541;-45
2021/04/13 08:52:42;;;;;;;25.80;21.52;;;;;;;12.11;67.63;100900.92;1661624;84;21263;-43
2021/04/13 08:55:44;;;;;;;28.80;22.55;;;;;;;12.19;67.64;100902.66;1802412;78;23040;-45
2021/04/13 08:58:22;;;;;;;31.05;23.20;;;;;;;12.18;67.39;100909.45;1712338;81;22203;-45
2021/04/13 09:00:56;;;;;;;31.07;23.22;;;;;;;12.19;67.37;100909.34;1708080;83;21149;-42
2021/04/13 09:03:42;;;;;;;26.35;21.42;;;;;;;12.20;67.39;100898.20;1702908;83;21159;-43
2021/04/13 09:06:25;;;;;;;29.20;21.23;;;;;;;12.22;67.23;100897.61;1734775;81;21179;-44
2021/04/13 09:09:08;;;;;;;30.60;22.90;;;;;;;12.25;67.25;100898.31;1739799;81;21175;-43
2021/04/13 09:12:06;;;;;;;32.73;22.52;;;;;;;12.28;67.26;100899.47;1722960;81;21430;-43
2021/04/13 09:15:07;;;;;;;28.00;22.10;;;;;;;12.30;67.14;100896.71;1705218;82;21197;-43
2021/04/13 09:18:14;;;;;;;27.10;21.35;;;;;;;12.31;66.92;100890.40;1699925;82;21246;-43
2021/04/13 09:21:06;;;;;;;26.75;19.07;;;;;;;12.32;66.79;100882.75;1689214;84;21468;-41
2021/04/13 09:23:50;;;;;;;25.02;20.48;;;;;;;12.36;66.87;100885.64;1722299;81;21180;-42
2021/04/13 09:26:22;;;;;;;25.70;20.37;;;;;;;12.41;66.75;100885.37;1711333;81;21882;-41
2021/04/13 09:28:57;;;;;;;28.12;21.50;;;;;;;12.43;66.67;100883.47;1687086;83;21641;-43
2021/04/13 09:31:46;;;;;;;27.45;21.97;;;;;;;12.45;66.57;100875.73;1702829;81;21826;-43
2021/04/13 09:34:33;;;;;;;22.27;19.82;;;;;;;12.48;66.31;100873.35;1693131;83;21142;-43
2021/04/13 09:37:21;;;;;;;23.15;19.85;;;;;;;12.48;66.14;100867.52;1697364;81;22151;-44
2021/04/13 09:40:17;;;;;;;23.32;20.65;;;;;;;12.51;66.21;100875.84;1694642;83;21343;-44
2021/04/13 09:42:54;;;;;;;21.27;18.95;;;;;;;12.53;66.12;100869.44;1696606;83;21145;-43
2021/04/13 09:45:44;;;;;;;24.75;19.27;;;;;;;12.55;66.22;100869.36;1593395;87;21766;-44
2021/04/13 09:48:35;;;;;;;;;;;;;;;12.57;66.25;100872.77;1607056;87;21310;-46
2021/04/13 09:51:18;;;;;;;21.95;18.75;;;;;;;12.59;66.10;100870.02;1594642;87;20483;-45
2021/04/13 09:54:12;;;;;;;27.70;19.73;;;;;;;12.60;66.21;100871.28;1633020;86;21331;-42
2021/04/13 09:57:33;;;;;;;21.48;17.92;;;;;;;12.63;66.23;100861.72;1762407;79;22930;-40
2021/04/13 10:00:40;;;;;;;20.62;18.12;;;;;;;12.61;66.19;100866.78;1732819;80;21177;-41
2021/04/13 10:03:42;;;;;;;21.30;18.52;;;;;;;12.62;66.34;100864.48;1733718;80;21159;-41
2021/04/13 10:06:11;;;;;;;20.82;17.65;;;;;;;12.64;66.07;100867.92;1733947;80;21546;-42
2021/04/13 10:08:44;;;;;;;23.20;18.95;;;;;;;12.65;65.97;100858.93;1735031;82;21381;-41
2021/04/13 10:11:24;;;;;;;20.05;16.80;;;;;;;12.64;65.82;100858.08;1734971;80;21104;-42
2021/04/13 10:14:26;;;;;;;22.52;18.87;;;;;;;12.65;65.98;100854.92;1736727;80;21891;-43
2021/04/13 10:17:31;;;;;;;22.55;17.85;;;;;;;12.67;66.07;100853.02;1715789;82;21489;-42
2021/04/13 10:20:07;;;;;;;22.80;18.75;;;;;;;12.70;66.19;100860.39;1722061;82;21136;-42
2021/04/13 10:23:25;;;;;;;19.35;16.50;;;;;;;12.73;66.24;100856.19;1729524;81;21153;-39
2021/04/13 10:26:13;;;;;;;21.35;17.73;;;;;;;12.77;66.09;100854.17;1737293;81;21156;-44
2021/04/13 10:29:39;;;;;;;22.27;18.98;;;;;;;12.85;66.11;100845.66;1797139;78;23416;-41
2021/04/13 10:32:33;;;;;;;21.70;17.73;;;;;;;12.85;65.82;100849.68;1726365;80;21650;-43
2021/04/13 10:36:19;;;;;;;23.80;18.95;;;;;;;12.92;65.77;100848.34;1787872;78;22864;-39
2021/04/13 10:39:06;;;;;;;19.32;16.85;;;;;;;12.91;65.46;100846.64;1758691;79;21168;-42
2021/04/13 10:42:06;;;;;;;22.50;19.02;;;;;;;12.94;65.35;100850.45;1763593;79;21102;-43
2021/04/13 10:45:05;;;;;;;23.77;17.48;;;;;;;12.97;65.27;100848.44;1771293;79;21129;-46
2021/04/13 10:48:03;;;;;;;25.60;18.45;;;;;;;12.99;65.15;100851.88;1733946;79;21137;-44
2021/04/13 10:51:02;;;;;;;20.55;17.75;;;;;;;13.03;65.07;100845.88;1771954;79;21157;-46
2021/04/13 10:54:12;;;;;;;23.67;16.95;;;;;;;13.05;64.83;100849.29;1681518;82;21722;-46
2021/04/13 10:57:28;;;;;;;21.42;17.27;;;;;;;13.06;64.83;100854.19;1682778;82;21229;-45
2021/04/13 11:00:25;;;;;;;20.97;16.65;;;;;;;13.03;64.72;100849.89;1697767;82;21139;-42
2021/04/13 11:03:25;;;;;;;19.55;17.42;;;;;;;13.02;64.59;100844.13;1680446;83;21821;-45
2021/04/13 11:06:17;;;;;;;18.27;16.27;;;;;;;13.01;64.74;100842.42;1685381;82;21334;-42
2021/04/13 11:09:04;;;;;;;21.27;16.77;;;;;;;12.99;64.70;100845.19;1700200;82;21209;-40
2021/04/13 11:12:13;;;;;;;18.55;16.30;;;;;;;12.98;64.69;100842.14;1690580;82;21167;-42
2021/04/13 11:15:04;;;;;;;20.57;17.17;;;;;;;12.97;64.81;100840.41;1693214;82;21332;-43
2021/04/13 11:17:55;;;;;;;22.48;17.30;;;;;;;12.97;64.70;100843.56;1710353;81;21165;-41
2021/04/13 11:20:59;;;;;;;17.82;15.72;;;;;;;12.96;64.84;100846.72;1709515;81;21150;-41
2021/04/13 11:23:52;;;;;;;21.95;17.27;;;;;;;12.98;64.69;100846.16;1707010;82;21228;-40
2021/04/13 11:26:50;;;;;;;21.45;16.48;;;;;;;12.98;64.54;100846.16;1714825;82;21322;-40
2021/04/13 11:29:54;;;;;;;19.52;17.25;;;;;;;12.98;64.42;100838.61;1705385;81;21164;-40
2021/04/13 11:33:08;;;;;;;23.00;17.40;;;;;;;12.98;64.59;100839.47;1738934;81;21236;-40
2021/04/13 11:36:06;;;;;;;22.27;16.90;;;;;;;12.97;64.64;100840.89;1738719;81;21285;-45
2021/04/13 11:39:01;;;;;;;21.25;17.77;;;;;;;12.99;64.58;100841.17;1701880;81;21507;-44
2021/04/13 11:42:05;;;;;;;25.12;18.62;;;;;;;12.98;64.51;100839.95;1739891;81;21608;-38
2021/04/13 11:44:42;;;;;;;22.05;16.65;;;;;;;12.97;64.40;100839.06;1734831;81;21164;-39
2021/04/13 11:47:41;;;;;;;22.90;17.92;;;;;;;12.98;64.53;100838.61;1740304;81;21157;-38
2021/04/13 11:50:17;;;;;;;23.40;19.02;;;;;;;12.97;64.50;100839.55;1725767;81;21324;-38
2021/04/13 11:52:55;;;;;;;25.45;18.52;;;;;;;12.97;64.56;100838.20;1730898;81;21129;-38
2021/04/13 11:55:34;;;;;;;23.87;19.67;;;;;;;12.96;64.60;100838.70;1711219;83;21668;-38
2021/04/13 11:58:26;;;;;;;21.70;17.98;;;;;;;12.97;64.50;100838.20;1709100;83;21181;-39
2021/04/13 12:00:57;;;;;;;22.30;17.92;;;;;;;12.95;64.58;100834.31;1691609;83;21281;-39
2021/04/13 12:03:31;;;;;;;23.20;18.95;;;;;;;12.96;64.67;100835.16;1676468;83;21191;-41
2021/04/13 12:06:03;;;;;;;24.32;19.60;;;;;;;12.97;64.75;100831.52;1678338;84;21157;-39
2021/04/13 12:08:42;;;;;;;22.70;18.10;;;;;;;12.96;64.64;100829.33;1688356;84;21176;-39
2021/04/13 12:11:17;;;;;;;25.02;20.23;;;;;;;12.97;64.58;100823.48;1684120;84;21620;-39
2021/04/13 12:13:50;;;;;;;24.70;20.25;;;;;;;12.98;64.72;100818.53;1682260;84;21188;-40
2021/04/13 12:16:38;;;;;;;27.90;20.25;;;;;;;12.98;64.73;100819.39;1690211;83;21177;-39
2021/04/13 12:19:13;;;;;;;24.55;18.40;;;;;;;12.99;64.65;100821.09;1597790;87;21181;-45
2021/04/13 12:21:46;;;;;;;24.45;20.27;;;;;;;12.99;64.70;100818.42;1632067;86;21745;-39